• Join FlightAware (Why Join?)
  • Login
  • US Flag 
02:59AM EDT


 

Airport Tracker/Info


-or-


 

Live Flight TrackerFlight Track Log ✈ TAM3961 ✈ 17-Sep-2013 ✈ SBRJ / SDU - SBSP / CGH

Flight Track Log - Related Links

Times and Time Zones

All times are in EDT time to prevent confusion due to time zone crossing. See the TAM3961 flight status page for this flight to view local times or setup timezone preferences in your user account.

Time Position Orientation Groundspeed Altitude Reporting Facility
EDT Latitude Longitude Course Direction KTS MPH feet Rate Location/Type
08:54PM -23.5233 -46.1245 257° West  Level Estimated
08:55PM -23.5405 -46.2120 258° West  Level Estimated
08:56PM -23.5576 -46.2995 258° West  Level Estimated
08:57PM -23.5747 -46.3871 258° West  Level Estimated
08:58PM -23.5917 -46.4746 258° West  Level Estimated
08:59PM -23.6087 -46.5622 258° West  Level Estimated
09:00PM -23.6256 -46.6499 258° West  Level Estimated
09:01PM -23.6267 -46.6554 258° West  Level Estimated
09:02PM -23.6267 -46.6554 114° Southeast  Level Estimated
09:03PM -23.6267 -46.6554 114° Southeast  Level Estimated
09:04PM -23.6267 -46.6554 114° Southeast  Level Estimated
09:05PM -23.6267 -46.6554 114° Southeast  Level Estimated
09:06PM -23.6267 -46.6554 114° Southeast  Level Estimated
09:07PM -23.6267 -46.6554 114° Southeast  Level Estimated
09:08PM -23.6267 -46.6554 114° Southeast  Level Estimated
09:09PM -23.6267 -46.6554 114° Southeast  Level Estimated
09:10PM -23.6267 -46.6554 114° Southeast  Level Estimated
09:11PM -23.6267 -46.6554 114° Southeast  Level Estimated
09:12PM -23.6267 -46.6554 114° Southeast  Level Estimated
09:13PM -23.6267 -46.6554 114° Southeast  Level Estimated
09:14PM -23.6267 -46.6554 114° Southeast  Level Estimated
09:15PM -23.6267 -46.6554 114° Southeast  Level Estimated
09:16PM -23.6267 -46.6554 114° Southeast  Level Estimated